createdAt,value
2018-02-10T00:00:06.633Z,99.99
2018-02-10T00:01:16.576Z,99.99
2018-02-10T00:02:26.574Z,99.99
2018-02-10T00:03:36.783Z,99.99
2018-02-10T00:04:46.721Z,99.99
2018-02-10T00:05:56.668Z,99.99
2018-02-10T00:07:06.622Z,99.99
2018-02-10T00:08:16.569Z,99.99
2018-02-10T00:09:25.747Z,99.99
2018-02-10T00:10:35.442Z,99.99
2018-02-10T00:11:45.460Z,99.99
2018-02-10T00:12:55.165Z,99.99
2018-02-10T00:14:04.615Z,99.99
2018-02-10T00:15:14.558Z,99.99
2018-02-10T00:16:24.256Z,99.99
2018-02-10T00:17:34.206Z,99.99
2018-02-10T00:18:43.905Z,99.99
2018-02-10T00:19:53.595Z,99.99
2018-02-10T00:21:03.538Z,99.99
2018-02-10T00:22:13.223Z,99.99
2018-02-10T00:23:23.162Z,99.99
2018-02-10T00:24:33.110Z,99.99
2018-02-10T00:25:43.067Z,99.99
2018-02-10T00:26:52.767Z,99.99
2018-02-10T00:28:02.479Z,99.99
2018-02-10T00:29:12.430Z,99.99
2018-02-10T00:30:22.377Z,99.99
2018-02-10T00:31:32.317Z,99.99
2018-02-10T00:32:42.286Z,99.99
2018-02-10T00:33:51.712Z,99.99
2018-02-10T00:35:01.654Z,99.99
2018-02-10T00:36:11.603Z,99.99
2018-02-10T00:37:21.291Z,99.99
2018-02-10T00:38:31.239Z,99.99
2018-02-10T00:39:41.193Z,99.99
2018-02-10T00:40:51.136Z,99.99
2018-02-10T00:42:01.083Z,99.99
2018-02-10T00:43:11.032Z,99.99
2018-02-10T00:44:20.970Z,99.99
2018-02-10T00:45:30.154Z,99.99
2018-02-10T00:46:40.096Z,99.99
2018-02-10T00:47:49.527Z,99.99
2018-02-10T00:48:59.470Z,99.99
2018-02-10T00:50:09.159Z,99.99
2018-02-10T00:51:19.123Z,99.99
2018-02-10T00:52:29.072Z,99.99
2018-02-10T00:53:38.777Z,99.99
2018-02-10T00:54:48.813Z,99.99
2018-02-10T00:55:58.758Z,99.99
2018-02-10T00:57:08.706Z,99.99
2018-02-10T00:58:18.398Z,99.99
2018-02-10T00:59:28.353Z,99.99
2018-02-10T01:00:38.079Z,99.99
2018-02-10T01:01:47.504Z,99.99
2018-02-10T01:02:57.503Z,99.99
2018-02-10T01:04:07.449Z,99.99
2018-02-10T01:05:17.146Z,99.99
2018-02-10T01:06:26.832Z,99.99
2018-02-10T01:07:37.029Z,99.99
2018-02-10T01:08:46.968Z,99.99
2018-02-10T01:09:56.973Z,99.99
2018-02-10T01:11:06.679Z,99.99
2018-02-10T01:12:16.634Z,99.99
2018-02-10T01:13:26.595Z,99.99
2018-02-10T01:14:36.029Z,99.99
2018-02-10T01:15:45.716Z,99.99
2018-02-10T01:16:55.678Z,99.99
2018-02-10T01:18:05.629Z,99.99
2018-02-10T01:19:15.576Z,99.99
2018-02-10T01:20:25.523Z,99.99
2018-02-10T01:21:35.462Z,99.99
2018-02-10T01:22:45.402Z,99.99
2018-02-10T01:23:55.355Z,99.99
2018-02-10T01:25:05.301Z,99.99
2018-02-10T01:26:15.253Z,99.99
2018-02-10T01:27:25.219Z,99.99
2018-02-10T01:28:35.166Z,99.99
2018-02-10T01:29:44.849Z,99.99
2018-02-10T01:30:54.533Z,99.99
2018-02-10T01:32:04.481Z,99.99
2018-02-10T01:33:14.492Z,99.99
2018-02-10T01:34:24.182Z,99.99
2018-02-10T01:35:33.875Z,99.99
2018-02-10T01:36:43.556Z,99.99
2018-02-10T01:37:53.238Z,99.99
2018-02-10T01:39:02.674Z,99.99
2018-02-10T01:40:12.382Z,99.99
2018-02-10T01:41:22.356Z,99.99
2018-02-10T01:42:32.042Z,99.99
2018-02-10T01:43:41.987Z,99.99
2018-02-10T01:44:51.925Z,99.99
2018-02-10T01:46:01.859Z,99.99
2018-02-10T01:47:11.796Z,99.99
2018-02-10T01:48:21.748Z,99.99
2018-02-10T01:49:31.695Z,99.99
2018-02-10T01:50:41.637Z,99.99
2018-02-10T01:51:51.581Z,99.99
2018-02-10T01:53:01.523Z,99.99
2018-02-10T01:54:11.209Z,99.99
2018-02-10T01:55:21.154Z,99.99
2018-02-10T01:56:30.837Z,99.99
2018-02-10T01:57:40.785Z,99.99
2018-02-10T01:58:50.736Z,99.99
2018-02-10T02:00:00.677Z,99.99
2018-02-10T02:01:10.625Z,99.99
2018-02-10T02:02:20.567Z,99.99
2018-02-10T02:03:30.511Z,99.99
2018-02-10T02:04:40.456Z,99.99
2018-02-10T02:05:50.135Z,99.99
2018-02-10T02:07:00.084Z,99.99
2018-02-10T02:08:10.085Z,99.99
2018-02-10T02:09:20.029Z,99.99
2018-02-10T02:10:29.994Z,99.99
2018-02-10T02:11:39.429Z,99.99
2018-02-10T02:12:49.376Z,99.99
2018-02-10T02:13:59.317Z,99.99
2018-02-10T02:15:09.259Z,99.99
2018-02-10T02:16:18.955Z,99.99
2018-02-10T02:17:28.660Z,99.99
2018-02-10T02:18:38.145Z,99.99
2018-02-10T02:19:48.078Z,99.99
2018-02-10T02:20:58.024Z,99.99
2018-02-10T02:22:07.969Z,99.99
2018-02-10T02:23:17.910Z,99.99
2018-02-10T02:24:27.596Z,99.99
2018-02-10T02:25:37.285Z,99.99
2018-02-10T02:26:47.282Z,99.99
2018-02-10T02:27:57.232Z,99.99
2018-02-10T02:29:07.177Z,99.99
2018-02-10T02:30:16.870Z,99.99
2018-02-10T02:31:26.559Z,99.99
2018-02-10T02:32:35.993Z,99.99
2018-02-10T02:33:45.953Z,99.99
2018-02-10T02:34:55.644Z,99.99
2018-02-10T02:36:05.594Z,99.99
2018-02-10T02:37:15.794Z,99.99
2018-02-10T02:38:25.478Z,99.99
2018-02-10T02:39:35.163Z,99.99
2018-02-10T02:40:44.598Z,99.99
2018-02-10T02:41:54.555Z,99.99
2018-02-10T02:43:04.261Z,99.99
2018-02-10T02:44:14.238Z,99.99
2018-02-10T02:45:24.210Z,99.99
2018-02-10T02:46:33.911Z,99.99
2018-02-10T02:47:43.335Z,99.99
2018-02-10T02:48:53.027Z,99.99
2018-02-10T02:50:02.968Z,99.99
2018-02-10T02:51:12.653Z,99.99
2018-02-10T02:52:22.592Z,99.99
2018-02-10T02:53:32.277Z,99.99
2018-02-10T02:54:42.248Z,99.99
2018-02-10T02:55:52.183Z,99.99
2018-02-10T02:57:02.156Z,99.99
2018-02-10T02:58:12.154Z,99.99
2018-02-10T02:59:22.098Z,99.99
2018-02-10T03:00:32.041Z,99.99
2018-02-10T03:01:42.054Z,99.99
2018-02-10T03:02:51.743Z,99.99
2018-02-10T03:04:01.424Z,99.99
2018-02-10T03:05:11.113Z,99.99
2018-02-10T03:06:21.069Z,99.99
2018-02-10T03:07:31.014Z,99.99
2018-02-10T03:08:40.708Z,99.99
2018-02-10T03:09:50.656Z,99.99
2018-02-10T03:11:00.601Z,99.99
2018-02-10T03:12:10.282Z,99.99
2018-02-10T03:13:20.221Z,99.99
2018-02-10T03:14:29.953Z,99.99
2018-02-10T03:15:39.890Z,99.99
2018-02-10T03:16:49.841Z,99.99
2018-02-10T03:17:59.522Z,99.99
2018-02-10T03:19:09.469Z,99.99
2018-02-10T03:20:19.279Z,99.99
2018-02-10T03:21:29.230Z,99.99
2018-02-10T03:22:38.972Z,99.99
2018-02-10T03:23:48.909Z,99.99
2018-02-10T03:24:58.844Z,99.99
2018-02-10T03:26:08.784Z,99.99
2018-02-10T03:27:18.724Z,99.99
2018-02-10T03:28:28.405Z,99.99
2018-02-10T03:29:38.349Z,99.99
2018-02-10T03:30:48.050Z,99.99
2018-02-10T03:31:57.745Z,99.99
2018-02-10T03:33:07.433Z,99.99
2018-02-10T03:34:17.119Z,99.99
2018-02-10T03:35:26.835Z,99.99
2018-02-10T03:36:36.264Z,99.99
2018-02-10T03:37:46.216Z,99.99
2018-02-10T03:38:55.910Z,99.99
2018-02-10T03:40:05.592Z,99.99
2018-02-10T03:41:15.533Z,99.99
2018-02-10T03:42:25.481Z,99.99
2018-02-10T03:43:35.425Z,99.99
2018-02-10T03:44:45.370Z,99.99
2018-02-10T03:45:54.799Z,99.99
2018-02-10T03:47:04.485Z,99.99
2018-02-10T03:48:14.174Z,99.99
2018-02-10T03:49:23.863Z,99.99
2018-02-10T03:50:33.861Z,99.99
2018-02-10T03:51:43.559Z,99.99
2018-02-10T03:52:53.248Z,99.99
2018-02-10T03:54:02.928Z,99.99
2018-02-10T03:55:12.610Z,99.99
2018-02-10T03:56:22.550Z,99.99
2018-02-10T03:57:32.496Z,99.99
2018-02-10T03:58:42.433Z,99.99
2018-02-10T03:59:52.381Z,99.99
2018-02-10T04:01:02.062Z,99.99
2018-02-10T04:02:12.065Z,99.99
2018-02-10T04:03:22.003Z,99.99
2018-02-10T04:04:31.683Z,99.99
2018-02-10T04:05:41.372Z,99.99
2018-02-10T04:06:51.323Z,99.99
2018-02-10T04:08:01.267Z,99.99
2018-02-10T04:09:10.957Z,99.99
2018-02-10T04:10:20.640Z,99.99
2018-02-10T04:11:30.582Z,99.99
2018-02-10T04:12:40.528Z,99.99
2018-02-10T04:13:50.475Z,99.99
2018-02-10T04:15:00.410Z,99.99
2018-02-10T04:16:09.856Z,99.99
2018-02-10T04:17:19.293Z,99.99
2018-02-10T04:18:29.237Z,99.99
2018-02-10T04:19:39.181Z,99.99
2018-02-10T04:20:49.112Z,99.99
2018-02-10T04:21:58.794Z,99.99
2018-02-10T04:23:08.738Z,99.99
2018-02-10T04:24:18.676Z,99.99
2018-02-10T04:25:28.617Z,99.99
2018-02-10T04:26:38.557Z,99.99
2018-02-10T04:27:48.497Z,99.99
2018-02-10T04:28:58.175Z,99.99
2018-02-10T04:30:07.865Z,99.99
2018-02-10T04:31:17.542Z,99.99
2018-02-10T04:32:27.473Z,99.99
2018-02-10T04:33:37.146Z,99.99
2018-02-10T04:34:47.090Z,99.99
2018-02-10T04:35:56.525Z,99.99
2018-02-10T04:37:06.217Z,99.99
2018-02-10T04:38:15.898Z,99.99
2018-02-10T04:39:25.832Z,99.99
2018-02-10T04:40:35.776Z,99.99
2018-02-10T04:41:45.463Z,99.99
2018-02-10T04:42:55.149Z,99.99
2018-02-10T04:44:05.105Z,99.99
2018-02-10T04:45:14.804Z,99.99
2018-02-10T04:46:24.743Z,99.99
2018-02-10T04:47:34.698Z,99.99
2018-02-10T04:48:44.638Z,99.99
2018-02-10T04:49:54.575Z,99.99
2018-02-10T04:51:04.259Z,99.99
2018-02-10T04:52:14.197Z,99.99
2018-02-10T04:53:24.155Z,99.99
2018-02-10T04:54:33.840Z,99.99
2018-02-10T04:55:43.529Z,99.99
2018-02-10T04:56:53.463Z,99.99
2018-02-10T04:58:03.403Z,99.99
2018-02-10T04:59:13.090Z,99.99
2018-02-10T05:00:23.032Z,99.99
2018-02-10T05:01:32.717Z,99.99
2018-02-10T05:02:42.404Z,99.99
2018-02-10T05:03:52.349Z,99.99
2018-02-10T05:05:02.294Z,99.99
2018-02-10T05:06:12.243Z,99.99
2018-02-10T05:07:21.672Z,99.99
2018-02-10T05:08:31.630Z,99.99
2018-02-10T05:09:41.578Z,99.99
2018-02-10T05:10:51.542Z,99.99
2018-02-10T05:12:01.477Z,99.99
2018-02-10T05:13:11.403Z,99.99
2018-02-10T05:14:21.390Z,99.99
2018-02-10T05:15:31.337Z,99.99
2018-02-10T05:16:41.030Z,99.99
2018-02-10T05:17:50.721Z,99.99
2018-02-10T05:19:00.682Z,99.99
2018-02-10T05:20:10.619Z,99.99
2018-02-10T05:21:20.346Z,99.99
2018-02-10T05:22:30.292Z,99.99
2018-02-10T05:23:40.226Z,99.99
2018-02-10T05:24:50.163Z,99.99
2018-02-10T05:26:00.110Z,99.99
2018-02-10T05:27:09.799Z,99.99
2018-02-10T05:28:19.482Z,99.99
2018-02-10T05:29:29.171Z,99.99
2018-02-10T05:30:39.125Z,99.99
2018-02-10T05:31:49.070Z,99.99
2018-02-10T05:32:59.011Z,99.99
2018-02-10T05:34:08.694Z,99.99
2018-02-10T05:35:18.380Z,99.99
2018-02-10T05:36:28.063Z,99.99
2018-02-10T05:37:38.218Z,99.99
2018-02-10T05:38:48.185Z,99.99
2018-02-10T05:39:58.126Z,99.99
2018-02-10T05:41:07.822Z,99.99
2018-02-10T05:42:17.770Z,99.99
2018-02-10T05:43:27.707Z,99.99
2018-02-10T05:44:37.651Z,99.99
2018-02-10T05:45:47.584Z,99.99
2018-02-10T05:46:57.322Z,99.99
2018-02-10T05:48:07.277Z,99.99
2018-02-10T05:49:17.226Z,99.99
2018-02-10T05:50:27.177Z,99.99
2018-02-10T05:51:37.130Z,99.99
2018-02-10T05:52:47.103Z,99.99
2018-02-10T05:53:57.041Z,99.99
2018-02-10T05:55:06.723Z,99.99
2018-02-10T05:56:16.401Z,99.99
2018-02-10T05:57:26.351Z,99.99
2018-02-10T05:58:36.356Z,99.99
2018-02-10T05:59:46.048Z,99.99
2018-02-10T06:00:55.733Z,99.99
2018-02-10T06:02:05.679Z,99.99
2018-02-10T06:03:15.619Z,99.99
2018-02-10T06:04:25.561Z,99.99
2018-02-10T06:05:35.498Z,99.99
2018-02-10T06:06:45.432Z,99.99
2018-02-10T06:07:55.115Z,99.99
2018-02-10T06:09:04.803Z,99.99
2018-02-10T06:10:14.746Z,99.99
2018-02-10T06:11:24.494Z,99.99
2018-02-10T06:12:34.455Z,99.99
2018-02-10T06:13:44.403Z,99.99
2018-02-10T06:14:54.387Z,99.99
2018-02-10T06:16:03.810Z,99.99
2018-02-10T06:17:13.544Z,99.99
2018-02-10T06:18:23.494Z,99.99
2018-02-10T06:19:33.433Z,99.99
2018-02-10T06:20:43.427Z,99.99
2018-02-10T06:21:53.121Z,99.99
2018-02-10T06:23:03.071Z,99.99
2018-02-10T06:24:13.018Z,99.99
2018-02-10T06:25:22.963Z,99.99
2018-02-10T06:26:32.951Z,99.99
2018-02-10T06:27:42.638Z,99.99
2018-02-10T06:28:52.633Z,99.99
2018-02-10T06:30:02.593Z,99.99
2018-02-10T06:31:12.543Z,99.99
2018-02-10T06:32:22.479Z,99.99
2018-02-10T06:33:32.428Z,99.99
2018-02-10T06:34:42.114Z,99.99
2018-02-10T06:35:52.063Z,99.99
2018-02-10T06:37:02.031Z,99.99
2018-02-10T06:38:11.988Z,99.99
2018-02-10T06:39:21.693Z,99.99
2018-02-10T06:40:31.646Z,99.99
2018-02-10T06:41:41.593Z,99.99
2018-02-10T06:42:51.532Z,99.99
2018-02-10T06:44:01.222Z,99.99
2018-02-10T06:45:11.169Z,99.99
2018-02-10T06:46:21.112Z,99.99
2018-02-10T06:47:31.057Z,99.99
2018-02-10T06:48:40.741Z,99.99
2018-02-10T06:49:50.444Z,99.99
2018-02-10T06:51:00.138Z,99.99
2018-02-10T06:52:10.084Z,99.99
2018-02-10T06:53:20.018Z,99.99
2018-02-10T06:54:29.951Z,99.99
2018-02-10T06:55:39.635Z,99.99
2018-02-10T06:56:49.313Z,99.99
2018-02-10T06:57:59.248Z,99.99
2018-02-10T06:59:09.197Z,99.99
2018-02-10T07:00:19.143Z,99.99
2018-02-10T07:01:29.082Z,99.99
2018-02-10T07:02:39.049Z,99.99
2018-02-10T07:03:48.732Z,99.99
2018-02-10T07:04:58.673Z,99.99
2018-02-10T07:06:08.622Z,99.99
2018-02-10T07:07:18.048Z,99.99
2018-02-10T07:08:27.986Z,99.99
2018-02-10T07:09:37.942Z,99.99
2018-02-10T07:10:47.637Z,99.99
2018-02-10T07:11:57.594Z,99.99
2018-02-10T07:13:07.281Z,99.99
2018-02-10T07:14:17.224Z,99.99
2018-02-10T07:15:27.182Z,99.99
2018-02-10T07:16:37.122Z,99.99
2018-02-10T07:17:47.061Z,99.99
2018-02-10T07:18:56.777Z,99.99
2018-02-10T07:20:06.239Z,99.99
2018-02-10T07:21:15.927Z,99.99
2018-02-10T07:22:25.872Z,99.99
2018-02-10T07:23:35.814Z,99.99
2018-02-10T07:24:45.764Z,99.99
2018-02-10T07:25:55.706Z,99.99
2018-02-10T07:27:05.399Z,99.99
2018-02-10T07:28:15.081Z,99.99
2018-02-10T07:29:25.025Z,99.99
2018-02-10T07:30:34.965Z,99.99
2018-02-10T07:31:44.654Z,99.99
2018-02-10T07:32:54.602Z,99.99
2018-02-10T07:34:04.554Z,99.99
2018-02-10T07:35:14.506Z,99.99
2018-02-10T07:36:24.196Z,99.99
2018-02-10T07:37:33.912Z,99.99
2018-02-10T07:38:43.862Z,99.99
2018-02-10T07:39:53.801Z,99.99
2018-02-10T07:41:03.736Z,99.99
2018-02-10T07:42:13.682Z,99.99
2018-02-10T07:43:23.623Z,99.99
2018-02-10T07:44:33.572Z,99.99
2018-02-10T07:45:43.513Z,99.99
2018-02-10T07:46:53.456Z,99.99
2018-02-10T07:48:02.885Z,99.99
2018-02-10T07:49:12.566Z,99.99
2018-02-10T07:50:22.251Z,99.99
2018-02-10T07:51:31.426Z,99.99
2018-02-10T07:52:41.129Z,99.99
2018-02-10T07:53:50.565Z,99.99
2018-02-10T07:55:00.524Z,99.99
2018-02-10T07:56:10.209Z,99.99
2018-02-10T07:57:20.151Z,99.99
2018-02-10T07:58:30.097Z,99.99
2018-02-10T07:59:39.543Z,99.99
2018-02-10T08:00:49.483Z,99.99
2018-02-10T08:01:58.919Z,99.99
2018-02-10T08:03:08.885Z,99.99
2018-02-10T08:04:18.575Z,99.99
2018-02-10T08:05:28.263Z,99.99
2018-02-10T08:06:38.209Z,99.99
2018-02-10T08:07:48.166Z,99.99
2018-02-10T08:08:57.886Z,99.99
2018-02-10T08:10:07.829Z,99.99
2018-02-10T08:11:17.760Z,99.99
2018-02-10T08:12:27.446Z,99.99
2018-02-10T08:13:37.400Z,99.99
2018-02-10T08:14:47.081Z,99.99
2018-02-10T08:15:57.027Z,99.99
2018-02-10T08:17:06.713Z,99.99
2018-02-10T08:18:16.679Z,99.99
2018-02-10T08:19:26.382Z,99.99
2018-02-10T08:20:36.340Z,99.99
2018-02-10T08:21:46.284Z,99.99
2018-02-10T08:22:56.219Z,99.99
2018-02-10T08:24:06.166Z,99.99
2018-02-10T08:25:15.851Z,99.99
2018-02-10T08:26:25.852Z,99.99
2018-02-10T08:27:35.793Z,99.99
2018-02-10T08:28:45.743Z,99.99
2018-02-10T08:29:55.692Z,99.99
2018-02-10T08:31:05.640Z,99.99
2018-02-10T08:32:15.593Z,99.99
2018-02-10T08:33:25.280Z,99.99
2018-02-10T08:34:35.226Z,99.99
2018-02-10T08:35:44.912Z,99.99
2018-02-10T08:36:54.850Z,99.99
2018-02-10T08:38:04.282Z,99.99
2018-02-10T08:39:14.229Z,99.99
2018-02-10T08:40:24.179Z,99.99
2018-02-10T08:41:33.883Z,99.99
2018-02-10T08:42:43.314Z,99.99
2018-02-10T08:43:53.011Z,99.99
2018-02-10T08:45:02.970Z,99.99
2018-02-10T08:46:12.928Z,99.99
2018-02-10T08:47:22.864Z,99.99
2018-02-10T08:48:32.561Z,99.99
2018-02-10T08:49:42.254Z,99.99
2018-02-10T08:50:51.940Z,99.99
2018-02-10T08:52:01.884Z,99.99
2018-02-10T08:53:11.826Z,99.99
2018-02-10T08:54:21.768Z,99.99
2018-02-10T08:55:31.464Z,99.99
2018-02-10T08:56:41.405Z,99.99
2018-02-10T08:57:51.347Z,99.99
2018-02-10T08:59:01.292Z,99.99
2018-02-10T09:00:11.250Z,99.99
2018-02-10T09:01:21.202Z,99.99
2018-02-10T09:02:31.143Z,99.99
2018-02-10T09:03:40.829Z,99.99
2018-02-10T09:04:50.805Z,99.99
2018-02-10T09:06:00.748Z,99.99
2018-02-10T09:07:10.691Z,99.99
2018-02-10T09:08:20.646Z,99.99
2018-02-10T09:09:30.592Z,99.99
2018-02-10T09:10:40.293Z,99.99
2018-02-10T09:11:50.229Z,99.99
2018-02-10T09:13:00.181Z,99.99
2018-02-10T09:14:10.144Z,99.99
2018-02-10T09:15:20.089Z,99.99
2018-02-10T09:16:30.032Z,99.99
2018-02-10T09:17:39.730Z,99.99
2018-02-10T09:18:49.681Z,99.99
2018-02-10T09:19:59.612Z,99.99
2018-02-10T09:21:08.792Z,99.99
2018-02-10T09:22:18.735Z,99.99
2018-02-10T09:23:28.426Z,99.99
2018-02-10T09:24:38.120Z,99.99
2018-02-10T09:25:48.066Z,99.99
2018-02-10T09:26:57.849Z,99.99
2018-02-10T09:28:07.802Z,99.99
2018-02-10T09:29:17.799Z,99.99
2018-02-10T09:30:27.486Z,99.99
2018-02-10T09:31:37.444Z,99.99
2018-02-10T09:32:47.130Z,99.99
2018-02-10T09:33:56.817Z,99.99
2018-02-10T09:35:06.776Z,99.99
2018-02-10T09:36:16.462Z,99.99
2018-02-10T09:37:26.416Z,99.99
2018-02-10T09:38:36.364Z,99.99
2018-02-10T09:39:46.056Z,99.99
2018-02-10T09:40:56.027Z,99.99
2018-02-10T09:42:05.729Z,99.99
2018-02-10T09:43:15.676Z,99.99
2018-02-10T09:44:25.429Z,99.99
2018-02-10T09:45:35.137Z,99.99
2018-02-10T09:46:45.092Z,99.99
2018-02-10T09:47:55.036Z,99.99
2018-02-10T09:49:04.470Z,99.99
2018-02-10T09:50:14.150Z,99.99
2018-02-10T09:51:24.102Z,99.99
2018-02-10T09:52:33.797Z,99.99
2018-02-10T09:53:43.818Z,99.99
2018-02-10T09:54:53.768Z,99.99
2018-02-10T09:56:03.466Z,99.99
2018-02-10T09:57:13.151Z,99.99
2018-02-10T09:58:23.101Z,99.99
2018-02-10T09:59:32.785Z,99.99
2018-02-10T10:00:42.738Z,99.99
2018-02-10T10:01:52.694Z,99.99
2018-02-10T10:03:02.372Z,99.99
2018-02-10T10:04:12.322Z,99.99
2018-02-10T10:05:22.276Z,99.99
2018-02-10T10:06:32.222Z,99.99
2018-02-10T10:07:42.171Z,99.99
2018-02-10T10:08:51.869Z,99.99
2018-02-10T10:10:01.799Z,99.99
2018-02-10T10:11:11.747Z,99.99
2018-02-10T10:12:21.714Z,99.99
2018-02-10T10:13:31.665Z,99.99
2018-02-10T10:14:41.349Z,99.99
2018-02-10T10:15:51.037Z,99.99
2018-02-10T10:17:00.715Z,99.99
2018-02-10T10:18:10.672Z,99.99
2018-02-10T10:19:20.366Z,99.99
2018-02-10T10:20:30.329Z,99.99
2018-02-10T10:21:40.280Z,99.99
2018-02-10T10:22:50.238Z,99.99
2018-02-10T10:24:00.179Z,99.99
2018-02-10T10:25:09.877Z,99.99
2018-02-10T10:26:19.838Z,99.99
2018-02-10T10:27:29.535Z,99.99
2018-02-10T10:28:39.489Z,99.99
2018-02-10T10:29:49.432Z,99.99
2018-02-10T10:30:59.376Z,99.99
2018-02-10T10:32:09.328Z,99.99
2018-02-10T10:33:19.274Z,99.99
2018-02-10T10:34:28.982Z,99.99
2018-02-10T10:35:38.678Z,99.99
2018-02-10T10:36:48.391Z,99.99
2018-02-10T10:37:58.344Z,99.99
2018-02-10T10:39:08.031Z,99.99
2018-02-10T10:40:17.733Z,99.99
2018-02-10T10:41:27.456Z,99.99
2018-02-10T10:42:37.408Z,99.99
2018-02-10T10:43:47.136Z,99.99
2018-02-10T10:44:57.162Z,99.99
2018-02-10T10:46:07.112Z,99.99
2018-02-10T10:47:16.882Z,99.99
2018-02-10T10:48:26.846Z,99.99
2018-02-10T10:49:36.813Z,99.99
2018-02-10T10:50:46.763Z,99.99
2018-02-10T10:51:56.209Z,99.99
2018-02-10T10:53:06.154Z,99.99
2018-02-10T10:54:16.159Z,99.99
2018-02-10T10:55:26.116Z,99.99
2018-02-10T10:56:35.537Z,99.99
2018-02-10T10:57:45.248Z,99.99
2018-02-10T10:58:55.203Z,99.99
2018-02-10T11:00:04.894Z,99.99
2018-02-10T11:01:14.842Z,99.99
2018-02-10T11:02:24.804Z,99.99
2018-02-10T11:03:34.756Z,99.99
2018-02-10T11:04:44.705Z,99.99
2018-02-10T11:05:54.647Z,99.99
2018-02-10T11:07:04.598Z,99.99
2018-02-10T11:08:14.546Z,99.99
2018-02-10T11:09:24.498Z,99.99
2018-02-10T11:10:34.434Z,99.99
2018-02-10T11:11:44.381Z,99.99
2018-02-10T11:12:54.333Z,99.99
2018-02-10T11:14:04.034Z,99.99
2018-02-10T11:15:13.989Z,99.99
2018-02-10T11:16:23.946Z,99.99
2018-02-10T11:17:33.892Z,99.99
2018-02-10T11:18:43.903Z,99.99
2018-02-10T11:19:53.855Z,99.99
2018-02-10T11:21:03.796Z,99.99
2018-02-10T11:22:13.799Z,99.99
2018-02-10T11:23:23.796Z,99.99
2018-02-10T11:24:33.481Z,99.99
2018-02-10T11:25:43.430Z,99.99
2018-02-10T11:26:52.862Z,99.99
2018-02-10T11:28:02.564Z,99.99
2018-02-10T11:29:12.541Z,99.99
2018-02-10T11:30:22.227Z,99.99
2018-02-10T11:31:32.212Z,99.99
2018-02-10T11:32:42.424Z,99.99
2018-02-10T11:33:52.173Z,99.99
2018-02-10T11:35:01.858Z,99.99
2018-02-10T11:36:11.833Z,99.99
2018-02-10T11:37:21.779Z,99.99
2018-02-10T11:38:31.526Z,99.99
2018-02-10T11:39:41.468Z,99.99
2018-02-10T11:40:51.173Z,99.99
2018-02-10T11:42:00.616Z,99.99
2018-02-10T11:43:10.561Z,99.99
2018-02-10T11:44:20.288Z,99.99
2018-02-10T11:45:30.234Z,99.99
2018-02-10T11:46:39.672Z,99.99
2018-02-10T11:47:49.619Z,99.99
2018-02-10T11:48:59.564Z,99.99
2018-02-10T11:50:09.613Z,99.99
2018-02-10T11:51:19.553Z,99.99
2018-02-10T11:52:29.508Z,99.99
2018-02-10T11:53:38.958Z,99.99
2018-02-10T11:54:48.738Z,99.99
2018-02-10T11:55:58.735Z,99.99
2018-02-10T11:57:08.417Z,99.99
2018-02-10T11:58:18.354Z,99.99
2018-02-10T11:59:28.404Z,99.99
2018-02-10T12:00:38.547Z,99.99
2018-02-10T12:01:47.719Z,99.99
2018-02-10T12:02:57.418Z,99.99
2018-02-10T12:04:07.367Z,99.99
2018-02-10T12:05:17.065Z,99.99
2018-02-10T12:06:26.763Z,99.99
2018-02-10T12:07:35.946Z,99.99
2018-02-10T12:08:45.897Z,99.99
2018-02-10T12:09:55.607Z,99.99
2018-02-10T12:11:05.583Z,99.99
2018-02-10T12:12:15.288Z,99.99
2018-02-10T12:13:24.713Z,99.99
2018-02-10T12:14:34.782Z,99.99
2018-02-10T12:15:44.483Z,99.99
2018-02-10T12:16:54.188Z,99.99
2018-02-10T12:18:04.154Z,99.99
2018-02-10T12:19:14.105Z,99.99
2018-02-10T12:20:23.809Z,99.99
2018-02-10T12:21:33.753Z,99.99
2018-02-10T12:22:42.934Z,99.99
2018-02-10T12:23:52.900Z,99.99
2018-02-10T12:25:02.868Z,99.99
2018-02-10T12:26:12.852Z,99.99
2018-02-10T12:27:22.815Z,99.99
2018-02-10T12:28:32.775Z,99.99
2018-02-10T12:29:42.461Z,99.99
2018-02-10T12:30:52.428Z,99.99
2018-02-10T12:32:02.461Z,99.99
2018-02-10T12:33:12.487Z,99.99
2018-02-10T12:34:22.435Z,99.99
2018-02-10T12:35:31.872Z,99.99
2018-02-10T12:36:41.811Z,99.99
2018-02-10T12:37:51.236Z,99.99
2018-02-10T12:39:00.932Z,99.99
2018-02-10T12:40:10.902Z,99.99
2018-02-10T12:41:20.860Z,99.99
2018-02-10T12:42:30.290Z,99.99
2018-02-10T12:43:39.985Z,99.99
2018-02-10T12:44:49.939Z,99.99
2018-02-10T12:45:59.943Z,99.99
2018-02-10T12:47:09.892Z,99.99
2018-02-10T12:48:19.596Z,99.99
2018-02-10T12:49:29.552Z,99.99
2018-02-10T12:50:39.264Z,99.99
2018-02-10T12:51:49.211Z,99.99
2018-02-10T12:52:59.168Z,99.99
2018-02-10T12:54:08.867Z,99.99
2018-02-10T12:55:18.827Z,99.99
2018-02-10T12:56:28.849Z,99.99
2018-02-10T12:57:38.821Z,99.99
2018-02-10T12:58:48.770Z,99.99
2018-02-10T12:59:58.758Z,99.99
2018-02-10T13:01:08.203Z,99.99
2018-02-10T13:02:18.199Z,99.99
2018-02-10T13:03:28.139Z,99.99
2018-02-10T13:04:38.094Z,99.99
2018-02-10T13:05:47.788Z,99.99
2018-02-10T13:06:57.487Z,99.99
2018-02-10T13:08:07.448Z,99.99
2018-02-10T13:09:17.163Z,99.99
2018-02-10T13:10:27.117Z,99.99
2018-02-10T13:11:37.069Z,99.99
2018-02-10T13:12:46.766Z,99.99
2018-02-10T13:13:56.720Z,99.81
2018-02-10T13:15:06.679Z,98.25
2018-02-10T13:16:16.374Z,97.4
2018-02-10T13:17:26.334Z,97.02
2018-02-10T13:18:36.305Z,96.92
2018-02-10T13:19:46.276Z,96.83
2018-02-10T13:20:56.002Z,95.5
2018-02-10T13:22:05.957Z,95.03
2018-02-10T13:23:15.910Z,95.69
2018-02-10T13:24:25.619Z,96.07
2018-02-10T13:25:35.567Z,96.17
2018-02-10T13:26:45.000Z,95.5
2018-02-10T13:27:54.949Z,95.41
2018-02-10T13:29:04.906Z,95.03
2018-02-10T13:30:14.878Z,94.46
2018-02-10T13:31:24.860Z,94.74
2018-02-10T13:32:34.569Z,95.03
2018-02-10T13:33:44.527Z,94.65
2018-02-10T13:34:54.494Z,95.88
2018-02-10T13:36:04.469Z,97.73
2018-02-10T13:37:14.163Z,98.2
2018-02-10T13:38:24.121Z,98.3
2018-02-10T13:39:34.065Z,98.39
2018-02-10T13:40:44.035Z,98.11
2018-02-10T13:41:54.031Z,97.92
2018-02-10T13:43:03.846Z,97.44
2018-02-10T13:44:13.811Z,97.49
2018-02-10T13:45:23.756Z,97.11
2018-02-10T13:46:33.700Z,97.49
2018-02-10T13:47:43.677Z,97.68
2018-02-10T13:48:53.378Z,97.16
2018-02-10T13:50:03.367Z,97.35
2018-02-10T13:51:13.322Z,97.63
2018-02-10T13:52:23.308Z,97.73
2018-02-10T13:53:33.325Z,97.63
2018-02-10T13:54:43.285Z,97.63
2018-02-10T13:55:53.265Z,97.49
2018-02-10T13:57:03.225Z,97.21
2018-02-10T13:58:12.710Z,97.68
2018-02-10T13:59:22.403Z,96.36
2018-02-10T14:00:32.360Z,95.88
2018-02-10T14:01:42.324Z,96.83
2018-02-10T14:02:52.275Z,97.4
2018-02-10T14:04:02.233Z,97.44
2018-02-10T14:05:11.966Z,97.16
2018-02-10T14:06:21.944Z,97.25
2018-02-10T14:07:31.897Z,97.35
2018-02-10T14:08:41.585Z,97.73
2018-02-10T14:09:51.044Z,97.73
2018-02-10T14:11:00.476Z,98.58
2018-02-10T14:12:09.927Z,98.2
2018-02-10T14:13:19.888Z,99.43
2018-02-10T14:14:29.578Z,99.99
2018-02-10T14:15:39.582Z,99.71
2018-02-10T14:16:49.536Z,99.9
2018-02-10T14:17:59.500Z,99.99
2018-02-10T14:19:09.187Z,99.99
2018-02-10T14:20:19.157Z,99.99
2018-02-10T14:21:29.136Z,99.99
2018-02-10T14:22:39.098Z,99.81
2018-02-10T14:23:49.043Z,99.99
2018-02-10T14:24:58.999Z,99.43
2018-02-10T14:26:08.951Z,99.9
2018-02-10T14:27:18.921Z,99.9
2018-02-10T14:28:28.882Z,99.9
2018-02-10T14:29:38.834Z,99.9
2018-02-10T14:30:48.785Z,99.33
2018-02-10T14:31:58.754Z,99.43
2018-02-10T14:33:08.698Z,98.39
2018-02-10T14:34:18.412Z,99.24
2018-02-10T14:35:28.105Z,99.43
2018-02-10T14:36:38.055Z,99.15
2018-02-10T14:37:47.505Z,99.66
2018-02-10T14:38:57.454Z,99.19
2018-02-10T14:40:07.423Z,99.95
2018-02-10T14:41:17.189Z,99.76
2018-02-10T14:42:26.876Z,99.99
2018-02-10T14:43:36.591Z,99.99
2018-02-10T14:44:46.545Z,99.99
2018-02-10T14:45:56.514Z,99.99
2018-02-10T14:47:06.208Z,99.95
2018-02-10T14:48:15.899Z,99.95
2018-02-10T14:49:25.602Z,99.99
2018-02-10T14:50:35.544Z,99.99
2018-02-10T14:51:45.490Z,99.99
2018-02-10T14:52:55.454Z,99.85
2018-02-10T14:54:05.152Z,99.99
2018-02-10T14:55:14.864Z,99.99
2018-02-10T14:56:24.818Z,99.99
2018-02-10T14:57:34.515Z,99.99
2018-02-10T14:58:44.005Z,99.99
2018-02-10T14:59:53.980Z,99.99